Time;durP1;ratioP1;P1;durP2;ratioP2;P2;SDS_P1;SDS_P2;PMS_P1;PMS_P2;Temp;Humidity;BMP_temperature;BMP_pressure;BME280_temperature;BME280_humidity;BME280_pressure;Samples;Min_cycle;Max_cycle;Signal;HPM_P1;HPM_P2
2023/09/21 00:01:38;;;;;;;20.20;10.33;;;;;;;;;;5040574;28;20190;-79
2023/09/21 00:04:05;;;;;;;13.33;6.63;;;;;;;;;;5074641;28;20266;-79
2023/09/21 00:06:32;;;;;;;14.10;7.60;;;;;;;;;;5056838;28;20186;-79
2023/09/21 00:12:53;;;;;;;16.77;8.57;;;;;;;;;;5074742;28;20655;-79
2023/09/21 00:19:13;;;;;;;16.20;7.93;;;;;;;;;;5066661;28;20392;-79
2023/09/21 00:21:40;;;;;;;15.00;8.77;;;;;;;;;;5074498;28;20200;-79
2023/09/21 00:24:16;;;;;;;16.43;7.90;;;;;;;;;;5074390;28;20209;-79
2023/09/21 00:30:54;;;;;;;13.50;7.90;;;;;;;;;;5074102;28;20201;-79
2023/09/21 00:33:22;;;;;;;13.53;8.43;;;;;;;;;;5056199;28;20198;-80
2023/09/21 00:35:49;;;;;;;14.67;8.10;;;;;;;;;;5059283;28;20195;-79
2023/09/21 00:42:09;;;;;;;11.93;7.53;;;;;;;;;;5053884;28;20153;-79
2023/09/21 00:44:35;;;;;;;12.53;6.63;;;;;;;;;;5036560;28;20201;-79
2023/09/21 00:47:03;;;;;;;13.23;7.23;;;;;;;;;;5036371;28;20637;-79
2023/09/21 00:49:31;;;;;;;13.27;6.67;;;;;;;;;;5036292;28;20190;-79
2023/09/21 00:51:58;;;;;;;11.17;5.80;;;;;;;;;;5052439;28;20210;-79
2023/09/21 00:54:42;;;;;;;11.50;6.67;;;;;;;;;;5053569;28;20464;-79
2023/09/21 01:01:27;;;;;;;11.63;6.50;;;;;;;;;;5053633;28;20173;-79
2023/09/21 01:03:55;;;;;;;10.97;6.27;;;;;;;;;;5053053;28;20697;-79
2023/09/21 01:06:23;;;;;;;9.60;6.10;;;;;;;;;;5036310;28;20183;-79
2023/09/21 01:08:50;;;;;;;10.17;6.30;;;;;;;;;;5019865;28;20578;-79
2023/09/21 01:43:33;;;;;;;8.83;5.93;;;;;;;;;;5094040;28;20584;-79
2023/09/21 01:46:01;;;;;;;7.50;5.00;;;;;;;;;;5075756;28;20192;-79
2023/09/21 01:48:27;;;;;;;8.53;6.07;;;;;;;;;;5092721;28;20271;-79
2023/09/21 01:54:55;;;;;;;11.90;6.10;;;;;;;;;;5095482;28;20184;-79
2023/09/21 01:57:21;;;;;;;9.43;5.57;;;;;;;;;;5096151;28;20193;-79
2023/09/21 02:03:41;;;;;;;8.83;5.63;;;;;;;;;;5097248;28;20258;-79
2023/09/21 02:06:08;;;;;;;9.20;5.63;;;;;;;;;;5080002;28;20288;-79
2023/09/21 02:12:35;;;;;;;7.50;5.20;;;;;;;;;;5097335;28;20184;-79
2023/09/21 02:15:02;;;;;;;8.40;4.90;;;;;;;;;;5095916;28;20197;-79
2023/09/21 02:17:29;;;;;;;12.20;5.60;;;;;;;;;;5079049;28;20632;-79
2023/09/21 02:19:56;;;;;;;7.90;4.70;;;;;;;;;;5097031;28;20193;-79
2023/09/21 02:22:23;;;;;;;9.23;5.20;;;;;;;;;;5079230;28;20520;-78
2023/09/21 02:28:44;;;;;;;6.47;4.67;;;;;;;;;;5096853;28;20179;-77
2023/09/21 02:31:11;;;;;;;7.67;4.60;;;;;;;;;;5078747;28;20209;-76
2023/09/21 02:33:42;;;;;;;5.53;3.93;;;;;;;;;;5062325;28;20192;-77
2023/09/21 02:36:13;;;;;;;6.20;4.13;;;;;;;;;;5079587;28;20196;-83
2023/09/21 02:38:40;;;;;;;6.17;4.20;;;;;;;;;;5079593;28;20193;-78
2023/09/21 02:45:10;;;;;;;6.93;4.40;;;;;;;;;;5098935;28;20194;-81
2023/09/21 02:47:38;;;;;;;7.67;5.00;;;;;;;;;;5081792;28;20737;-83
2023/09/21 02:50:14;;;;;;;7.70;4.83;;;;;;;;;;5058067;28;20281;-81
2023/09/21 02:56:42;;;;;;;5.73;3.43;;;;;;;;;;5057286;28;20201;-80
2023/09/21 03:03:14;;;;;;;5.40;4.07;;;;;;;;;;5057727;28;20225;-78
2023/09/21 03:05:45;;;;;;;8.20;4.33;;;;;;;;;;5022427;28;20642;-81
2023/09/21 03:12:15;;;;;;;5.23;3.70;;;;;;;;;;5057102;28;20193;-78
2023/09/21 03:14:46;;;;;;;5.60;4.40;;;;;;;;;;5038686;28;20171;-83
2023/09/21 03:17:14;;;;;;;6.97;4.60;;;;;;;;;;5037894;28;20655;-80
2023/09/21 03:19:41;;;;;;;7.90;5.30;;;;;;;;;;5055979;28;20203;-82
2023/09/21 03:22:08;;;;;;;6.30;4.40;;;;;;;;;;5037825;28;20226;-81
2023/09/21 03:28:37;;;;;;;7.13;4.23;;;;;;;;;;5055327;28;20226;-77
2023/09/21 03:31:04;;;;;;;5.67;4.33;;;;;;;;;;5055415;28;20213;-83
2023/09/21 03:37:26;;;;;;;5.63;3.70;;;;;;;;;;5055528;28;20677;-80
2023/09/21 03:39:54;;;;;;;6.77;3.87;;;;;;;;;;5037391;28;20194;-80
2023/09/21 03:42:23;;;;;;;6.10;4.20;;;;;;;;;;5037798;28;20199;-79
2023/09/21 03:44:50;;;;;;;6.00;4.00;;;;;;;;;;5021720;28;20186;-81
2023/09/21 03:47:17;;;;;;;6.13;3.83;;;;;;;;;;5038430;28;20579;-82
2023/09/21 03:53:44;;;;;;;5.60;3.90;;;;;;;;;;5056116;28;20160;-79
2023/09/21 04:00:25;;;;;;;8.37;4.53;;;;;;;;;;5054830;28;20291;-76
2023/09/21 04:02:53;;;;;;;5.70;3.77;;;;;;;;;;5020447;28;20194;-77
2023/09/21 04:05:24;;;;;;;6.43;3.50;;;;;;;;;;5037108;28;20201;-83
2023/09/21 04:11:49;;;;;;;7.47;4.50;;;;;;;;;;5054654;28;20209;-75
2023/09/21 04:14:17;;;;;;;8.73;5.00;;;;;;;;;;5054970;28;20229;-79
2023/09/21 04:16:45;;;;;;;17.10;5.93;;;;;;;;;;5053534;28;20269;-79
2023/09/21 04:23:13;;;;;;;7.80;4.17;;;;;;;;;;5055134;28;20252;-78
2023/09/21 04:25:47;;;;;;;7.03;4.43;;;;;;;;;;5037319;28;20201;-79
2023/09/21 04:28:19;;;;;;;7.93;4.17;;;;;;;;;;5022488;28;20197;-79
2023/09/21 04:30:50;;;;;;;8.60;4.83;;;;;;;;;;5040979;28;20186;-80
2023/09/21 04:33:18;;;;;;;8.90;5.07;;;;;;;;;;5037488;28;20234;-81
2023/09/21 04:35:45;;;;;;;10.17;5.00;;;;;;;;;;5021282;28;20208;-81
2023/09/21 04:38:12;;;;;;;11.63;5.60;;;;;;;;;;5020941;28;20547;-79
2023/09/21 04:40:39;;;;;;;11.00;5.77;;;;;;;;;;5037586;28;20256;-83
2023/09/21 04:43:06;;;;;;;14.13;5.60;;;;;;;;;;5037694;28;20179;-80
2023/09/21 04:49:37;;;;;;;10.13;5.30;;;;;;;;;;5057175;28;20154;-80
2023/09/21 04:52:11;;;;;;;9.47;4.60;;;;;;;;;;5024427;28;20214;-83
2023/09/21 05:02:11;;;;;;;13.20;5.40;;;;;;;;;;5070334;28;20195;-79
2023/09/21 05:08:45;;;;;;;11.00;5.13;;;;;;;;;;5074304;28;20178;-77
2023/09/21 05:11:13;;;;;;;12.07;4.63;;;;;;;;;;5075235;28;20197;-79
2023/09/21 05:24:49;;;;;;;21.83;7.00;;;;;;;;;;5054035;28;20494;-79
2023/09/21 05:31:15;;;;;;;11.70;5.50;;;;;;;;;;5058231;28;20197;-76
2023/09/21 05:37:31;;;;;;;17.03;6.33;;;;;;;;;;5063134;28;20247;-82
2023/09/21 05:48:07;;;;;;;14.07;6.37;;;;;;;;;;5079528;28;20489;-83
2023/09/21 05:54:35;;;;;;;14.83;7.90;;;;;;;;;;5079081;28;20643;-75
2023/09/21 05:57:05;;;;;;;15.90;9.23;;;;;;;;;;5058289;28;20201;-81
2023/09/21 05:59:33;;;;;;;17.03;8.37;;;;;;;;;;5076220;28;20186;-74
2023/09/21 06:05:19;;;;;;;15.17;8.53;;;;;;;;;;5059701;28;20182;-74
2023/09/21 06:11:48;;;;;;;20.17;11.27;;;;;;;;;;5076301;28;20232;-74
2023/09/21 06:14:17;;;;;;;17.53;10.67;;;;;;;;;;5042895;28;20232;-73
2023/09/21 06:21:21;;;;;;;12.97;8.73;;;;;;;;;;5076274;28;20216;-73
2023/09/21 06:27:47;;;;;;;9.63;7.43;;;;;;;;;;5058715;28;20239;-73
2023/09/21 06:34:10;;;;;;;17.53;7.40;;;;;;;;;;5076160;28;20591;-74
2023/09/21 06:40:39;;;;;;;11.87;6.80;;;;;;;;;;5076436;28;20149;-73
2023/09/21 06:43:44;;;;;;;9.50;6.80;;;;;;;;;;5077078;28;20242;-74
2023/09/21 06:46:11;;;;;;;9.47;6.77;;;;;;;;;;5076160;28;20214;-74
2023/09/21 06:48:38;;;;;;;10.40;6.80;;;;;;;;;;5057372;28;20197;-73
2023/09/21 06:57:47;;;;;;;11.00;6.33;;;;;;;;;;5076678;28;20202;-74
2023/09/21 07:04:08;;;;;;;10.20;5.73;;;;;;;;;;5075961;28;20672;-74
2023/09/21 07:11:23;;;;;;;6.90;4.80;;;;;;;;;;5074465;28;20225;-72
2023/09/21 07:17:52;;;;;;;5.87;4.07;;;;;;;;;;5074626;28;20149;-74
2023/09/21 07:20:23;;;;;;;6.00;4.10;;;;;;;;;;5075908;28;20227;-73
2023/09/21 07:22:53;;;;;;;5.50;3.70;;;;;;;;;;5041893;28;20217;-73
2023/09/21 07:25:22;;;;;;;4.83;3.37;;;;;;;;;;5074636;28;20230;-74
2023/09/21 07:27:51;;;;;;;4.57;3.43;;;;;;;;;;5074674;28;20196;-73
2023/09/21 07:33:59;;;;;;;6.13;3.17;;;;;;;;;;5012734;28;20178;-74
2023/09/21 07:36:26;;;;;;;4.90;2.90;;;;;;;;;;5064901;28;20189;-74
2023/09/21 07:38:55;;;;;;;5.07;3.00;;;;;;;;;;5020762;28;20193;-71
2023/09/21 07:41:22;;;;;;;4.33;2.90;;;;;;;;;;5037212;28;20208;-73
2023/09/21 07:47:52;;;;;;;3.97;2.33;;;;;;;;;;5055345;28;20302;-73
2023/09/21 07:50:23;;;;;;;3.00;2.37;;;;;;;;;;5037538;28;20209;-73
2023/09/21 07:52:53;;;;;;;5.63;2.83;;;;;;;;;;5021536;28;20256;-73
2023/09/21 07:55:53;;;;;;;5.53;2.50;;;;;;;;;;5054166;28;20530;-73
2023/09/21 07:58:21;;;;;;;4.17;2.33;;;;;;;;;;5036310;28;20186;-73
2023/09/21 08:00:48;;;;;;;7.07;2.23;;;;;;;;;;5053572;28;20190;-73
2023/09/21 08:03:18;;;;;;;6.53;2.40;;;;;;;;;;5036335;28;20628;-73
2023/09/21 08:05:53;;;;;;;4.20;2.10;;;;;;;;;;5037895;28;20163;-71
2023/09/21 08:08:27;;;;;;;5.70;2.40;;;;;;;;;;5036300;28;20198;-73
2023/09/21 08:10:56;;;;;;;3.40;2.17;;;;;;;;;;5055463;28;20167;-72
2023/09/21 08:17:23;;;;;;;3.53;2.27;;;;;;;;;;5054521;28;20153;-73
2023/09/21 08:19:50;;;;;;;3.87;2.07;;;;;;;;;;5036470;28;20207;-73
2023/09/21 08:26:13;;;;;;;5.00;2.00;;;;;;;;;;5053760;28;20529;-73
2023/09/21 08:32:36;;;;;;;3.57;2.23;;;;;;;;;;5049672;28;20699;-72
2023/09/21 08:35:24;;;;;;;7.10;2.83;;;;;;;;;;5037200;28;20270;-73
2023/09/21 08:37:56;;;;;;;4.13;2.20;;;;;;;;;;5021480;28;20224;-73
2023/09/21 08:40:24;;;;;;;5.63;2.57;;;;;;;;;;5036269;28;20634;-73
2023/09/21 08:42:52;;;;;;;7.17;2.60;;;;;;;;;;5053918;28;20183;-73
2023/09/21 08:45:26;;;;;;;4.93;2.57;;;;;;;;;;5053695;28;20613;-73
2023/09/21 08:47:53;;;;;;;4.23;2.47;;;;;;;;;;5052870;28;20189;-72
2023/09/21 08:50:21;;;;;;;5.77;2.33;;;;;;;;;;5035385;28;20270;-72
2023/09/21 08:56:43;;;;;;;7.37;2.43;;;;;;;;;;5053938;28;20213;-73
2023/09/21 08:59:10;;;;;;;6.50;2.40;;;;;;;;;;5037032;28;20183;-74
2023/09/21 09:01:37;;;;;;;6.33;2.30;;;;;;;;;;5036409;28;20191;-73
2023/09/21 09:04:04;;;;;;;4.70;2.07;;;;;;;;;;5003272;28;20739;-72
2023/09/21 09:06:32;;;;;;;3.97;2.13;;;;;;;;;;5035490;28;20187;-73
2023/09/21 09:09:20;;;;;;;6.73;2.17;;;;;;;;;;5030756;28;20232;-72
2023/09/21 09:11:59;;;;;;;4.60;2.10;;;;;;;;;;5019065;28;20211;-73
2023/09/21 09:18:38;;;;;;;4.13;2.40;;;;;;;;;;5052856;28;20596;-73
2023/09/21 09:21:22;;;;;;;5.03;2.17;;;;;;;;;;5024345;28;20173;-72
2023/09/21 09:27:49;;;;;;;4.27;2.10;;;;;;;;;;5053775;28;20204;-73
2023/09/21 09:30:20;;;;;;;4.23;1.70;;;;;;;;;;5036313;28;20253;-72
2023/09/21 09:33:15;;;;;;;4.40;2.23;;;;;;;;;;5019515;28;20738;-72
2023/09/21 09:35:45;;;;;;;5.03;2.10;;;;;;;;;;5034030;28;20195;-72
2023/09/21 09:42:07;;;;;;;8.40;2.00;;;;;;;;;;5053330;28;20205;-73
2023/09/21 09:44:35;;;;;;;3.50;1.83;;;;;;;;;;5053223;28;20179;-73
2023/09/21 09:47:05;;;;;;;3.20;1.93;;;;;;;;;;5035829;28;20214;-72
2023/09/21 09:49:38;;;;;;;3.93;1.83;;;;;;;;;;5036172;28;20246;-72
2023/09/21 09:52:07;;;;;;;5.73;1.90;;;;;;;;;;5053550;28;20281;-73
2023/09/21 09:55:00;;;;;;;5.10;1.87;;;;;;;;;;5019041;28;20281;-72
2023/09/21 09:57:48;;;;;;;5.20;1.60;;;;;;;;;;5051824;28;20182;-74
2023/09/21 10:00:21;;;;;;;2.90;1.73;;;;;;;;;;5067969;28;20273;-72
2023/09/21 10:02:48;;;;;;;4.60;1.97;;;;;;;;;;5019419;28;20210;-72
2023/09/21 10:05:19;;;;;;;3.80;2.07;;;;;;;;;;5036034;28;20214;-72
2023/09/21 10:07:49;;;;;;;5.23;2.03;;;;;;;;;;5053292;28;20285;-73
2023/09/21 10:10:20;;;;;;;2.63;1.60;;;;;;;;;;5053778;28;20607;-73
2023/09/21 10:12:51;;;;;;;3.20;1.80;;;;;;;;;;5052908;28;20218;-73
2023/09/21 10:15:22;;;;;;;4.27;1.90;;;;;;;;;;5020389;28;20229;-73
2023/09/21 10:18:15;;;;;;;2.07;1.57;;;;;;;;;;5037682;28;20264;-73
2023/09/21 10:21:22;;;;;;;3.30;1.70;;;;;;;;;;5040783;28;20645;-72
2023/09/21 10:27:03;;;;;;;5.17;1.80;;;;;;;;;;5057103;28;20169;-73
2023/09/21 10:33:30;;;;;;;5.20;1.67;;;;;;;;;;5056663;28;20213;-73
2023/09/21 10:35:58;;;;;;;4.00;1.67;;;;;;;;;;5022763;28;20389;-72
2023/09/21 10:38:27;;;;;;;2.77;2.00;;;;;;;;;;5037717;28;20274;-71
2023/09/21 10:41:02;;;;;;;5.80;1.97;;;;;;;;;;5022604;28;20198;-73
2023/09/21 10:43:37;;;;;;;4.47;1.73;;;;;;;;;;5038092;28;20249;-73
2023/09/21 10:49:58;;;;;;;5.97;1.70;;;;;;;;;;5056105;28;20154;-73
2023/09/21 10:52:27;;;;;;;6.13;1.80;;;;;;;;;;5039190;28;20318;-73
2023/09/21 10:54:55;;;;;;;4.40;1.97;;;;;;;;;;5056033;28;20622;-72
2023/09/21 10:57:24;;;;;;;3.57;1.80;;;;;;;;;;5055749;28;20821;-73
2023/09/21 11:03:27;;;;;;;6.27;1.97;;;;;;;;;;5038039;28;20223;-73
2023/09/21 11:05:55;;;;;;;5.10;2.10;;;;;;;;;;5055979;28;20167;-73
2023/09/21 11:08:25;;;;;;;4.33;2.00;;;;;;;;;;5038605;28;20202;-73
2023/09/21 11:14:55;;;;;;;7.80;2.03;;;;;;;;;;5055877;28;20676;-74
2023/09/21 11:17:23;;;;;;;7.33;2.10;;;;;;;;;;5038448;28;20187;-73
2023/09/21 11:23:12;;;;;;;3.67;1.97;;;;;;;;;;5054753;28;20275;-73
2023/09/21 11:29:39;;;;;;;4.03;1.90;;;;;;;;;;5055620;28;20154;-73
2023/09/21 11:32:24;;;;;;;3.07;1.70;;;;;;;;;;5024045;28;20210;-74
2023/09/21 11:34:58;;;;;;;5.00;2.20;;;;;;;;;;5038036;28;20197;-73
2023/09/21 11:41:25;;;;;;;3.30;2.10;;;;;;;;;;5053691;28;20182;-73
2023/09/21 11:55:41;;;;;;;4.20;2.00;;;;;;;;;;5055420;28;20202;-73
2023/09/21 12:02:16;;;;;;;4.17;2.20;;;;;;;;;;5055169;28;20149;-73
2023/09/21 12:04:43;;;;;;;5.93;2.40;;;;;;;;;;5053588;28;20227;-73
2023/09/21 12:07:11;;;;;;;2.90;1.87;;;;;;;;;;5053714;28;20235;-73
2023/09/21 12:09:40;;;;;;;2.63;2.00;;;;;;;;;;5037244;28;20288;-73
2023/09/21 12:16:26;;;;;;;3.87;1.97;;;;;;;;;;5054494;28;20156;-72
2023/09/21 12:18:59;;;;;;;7.20;2.10;;;;;;;;;;5053304;28;20219;-73
2023/09/21 12:21:27;;;;;;;6.80;2.30;;;;;;;;;;5037365;28;20525;-73
2023/09/21 12:24:10;;;;;;;5.27;2.57;;;;;;;;;;5035743;28;20232;-74
2023/09/21 12:26:38;;;;;;;6.37;2.17;;;;;;;;;;5052820;28;20517;-74
2023/09/21 12:33:15;;;;;;;8.03;2.40;;;;;;;;;;5053501;28;20230;-73
2023/09/21 12:35:46;;;;;;;6.40;2.20;;;;;;;;;;5021589;28;20188;-73
2023/09/21 12:38:15;;;;;;;4.80;2.17;;;;;;;;;;5036359;28;20203;-73
2023/09/21 12:40:43;;;;;;;7.10;2.37;;;;;;;;;;5037279;28;20264;-74
2023/09/21 12:43:11;;;;;;;7.80;2.30;;;;;;;;;;5020080;28;20196;-74
2023/09/21 12:45:38;;;;;;;5.13;2.30;;;;;;;;;;5035637;28;20194;-71
2023/09/21 12:56:05;;;;;;;4.37;2.23;;;;;;;;;;5053941;28;20168;-73
2023/09/21 12:58:33;;;;;;;4.87;2.37;;;;;;;;;;5054375;28;20561;-73
2023/09/21 13:01:00;;;;;;;2.57;1.70;;;;;;;;;;5036155;28;20237;-72
2023/09/21 13:03:27;;;;;;;3.73;1.80;;;;;;;;;;5052570;28;20249;-72
2023/09/21 13:06:13;;;;;;;5.37;2.20;;;;;;;;;;5052283;28;20176;-73
2023/09/21 13:12:42;;;;;;;4.90;2.30;;;;;;;;;;5053878;28;20277;-72
2023/09/21 13:15:14;;;;;;;6.83;2.23;;;;;;;;;;5036274;28;20212;-73
2023/09/21 13:17:42;;;;;;;5.77;2.10;;;;;;;;;;5035802;28;20190;-73
2023/09/21 13:24:10;;;;;;;7.23;2.30;;;;;;;;;;5052068;28;20635;-71
2023/09/21 13:26:37;;;;;;;5.40;2.20;;;;;;;;;;5052502;28;20585;-73
2023/09/21 13:29:05;;;;;;;4.90;2.00;;;;;;;;;;5053178;28;20185;-73
2023/09/21 13:35:32;;;;;;;6.90;2.23;;;;;;;;;;5053481;28;20187;-73
2023/09/21 13:38:00;;;;;;;5.07;2.10;;;;;;;;;;5053412;28;20194;-73
2023/09/21 13:40:44;;;;;;;6.47;2.27;;;;;;;;;;5052886;28;20272;-72
2023/09/21 13:43:14;;;;;;;4.57;2.13;;;;;;;;;;5017865;28;20250;-73
2023/09/21 13:45:41;;;;;;;7.00;2.37;;;;;;;;;;5052908;28;20205;-73
2023/09/21 13:52:09;;;;;;;7.43;2.50;;;;;;;;;;5056935;28;20254;-73
2023/09/21 13:54:37;;;;;;;4.83;2.13;;;;;;;;;;5040105;28;20195;-72
2023/09/21 13:57:12;;;;;;;4.93;2.13;;;;;;;;;;5056704;28;20722;-72
2023/09/21 14:00:12;;;;;;;9.87;2.47;;;;;;;;;;5057268;28;20185;-73
2023/09/21 14:02:46;;;;;;;5.30;2.40;;;;;;;;;;5038269;28;20186;-70
2023/09/21 14:09:19;;;;;;;5.93;2.23;;;;;;;;;;5056834;28;20251;-72
2023/09/21 14:15:49;;;;;;;4.70;2.10;;;;;;;;;;5057053;28;20178;-72
2023/09/21 14:18:21;;;;;;;6.07;2.30;;;;;;;;;;5039217;28;20224;-73
2023/09/21 14:21:14;;;;;;;5.63;2.10;;;;;;;;;;5038101;28;20220;-72
2023/09/21 14:23:42;;;;;;;8.30;2.33;;;;;;;;;;5071703;28;20184;-72
2023/09/21 14:30:26;;;;;;;3.10;2.10;;;;;;;;;;5074678;28;20304;-72
2023/09/21 14:32:54;;;;;;;6.60;2.20;;;;;;;;;;5076925;28;20216;-72
2023/09/21 14:35:21;;;;;;;10.43;2.40;;;;;;;;;;5076905;28;20178;-72
2023/09/21 14:45:46;;;;;;;6.27;2.10;;;;;;;;;;5055761;28;20244;-72
2023/09/21 14:48:14;;;;;;;6.23;2.50;;;;;;;;;;5067032;28;20194;-72
2023/09/21 14:50:42;;;;;;;7.97;2.63;;;;;;;;;;5042049;28;20251;-73
2023/09/21 14:53:09;;;;;;;7.93;2.23;;;;;;;;;;5076468;28;20290;-73
2023/09/21 14:55:38;;;;;;;5.83;2.33;;;;;;;;;;5076173;28;20537;-73
2023/09/21 14:58:06;;;;;;;4.63;2.20;;;;;;;;;;5024957;28;20179;-73
2023/09/21 15:00:34;;;;;;;6.90;2.13;;;;;;;;;;5056511;28;20245;-72
2023/09/21 15:03:21;;;;;;;8.03;2.53;;;;;;;;;;5057204;28;20219;-72
2023/09/21 15:05:51;;;;;;;7.53;2.20;;;;;;;;;;5075884;28;20490;-73
2023/09/21 15:08:19;;;;;;;6.73;2.43;;;;;;;;;;5058333;28;20194;-73
2023/09/21 15:10:46;;;;;;;6.53;2.50;;;;;;;;;;5025389;28;20190;-72
2023/09/21 15:13:14;;;;;;;7.40;2.60;;;;;;;;;;5076395;28;20208;-72
2023/09/21 15:15:43;;;;;;;6.47;2.47;;;;;;;;;;5058184;28;20273;-72
2023/09/21 15:18:11;;;;;;;9.73;2.60;;;;;;;;;;5041691;28;20239;-72
2023/09/21 15:20:42;;;;;;;5.10;2.07;;;;;;;;;;5075638;28;20221;-72
2023/09/21 15:23:27;;;;;;;7.30;2.33;;;;;;;;;;5075780;28;20175;-72
2023/09/21 15:25:54;;;;;;;5.77;2.33;;;;;;;;;;5057875;28;20693;-72
2023/09/21 15:28:37;;;;;;;5.70;2.20;;;;;;;;;;5057363;28;20192;-72
2023/09/21 15:31:06;;;;;;;8.47;2.13;;;;;;;;;;5074624;28;20645;-71
2023/09/21 15:33:37;;;;;;;8.13;2.47;;;;;;;;;;5058487;28;20201;-72
2023/09/21 15:36:06;;;;;;;4.60;2.13;;;;;;;;;;5073058;28;20186;-72
2023/09/21 15:38:34;;;;;;;6.03;2.03;;;;;;;;;;5056958;28;20182;-72
2023/09/21 15:41:20;;;;;;;6.17;2.53;;;;;;;;;;5075193;28;20189;-72
2023/09/21 15:43:48;;;;;;;9.13;2.60;;;;;;;;;;5058273;28;20261;-73
2023/09/21 15:46:16;;;;;;;6.03;2.20;;;;;;;;;;5057476;28;20194;-72
2023/09/21 15:48:45;;;;;;;10.97;2.43;;;;;;;;;;5041714;28;20188;-70
2023/09/21 15:51:13;;;;;;;9.40;2.17;;;;;;;;;;5075245;28;20541;-70
2023/09/21 15:53:43;;;;;;;7.83;2.23;;;;;;;;;;5076067;28;20537;-70
2023/09/21 15:56:12;;;;;;;6.70;2.33;;;;;;;;;;5058009;28;20163;-70
2023/09/21 16:02:39;;;;;;;4.67;2.20;;;;;;;;;;5055059;28;20193;-71
2023/09/21 16:05:06;;;;;;;5.50;2.20;;;;;;;;;;5054866;28;20230;-70
2023/09/21 16:11:27;;;;;;;4.37;2.77;;;;;;;;;;5055674;28;20205;-71
2023/09/21 16:13:55;;;;;;;5.70;2.40;;;;;;;;;;5054137;28;20545;-71
2023/09/21 16:16:25;;;;;;;5.73;2.60;;;;;;;;;;5021425;28;20194;-71
2023/09/21 16:18:52;;;;;;;5.10;2.40;;;;;;;;;;5044049;28;20205;-71
2023/09/21 16:21:38;;;;;;;7.47;2.50;;;;;;;;;;5059167;28;20185;-71
2023/09/21 16:24:05;;;;;;;3.97;2.63;;;;;;;;;;5055844;28;20213;-71
2023/09/21 16:30:27;;;;;;;8.03;2.60;;;;;;;;;;5073908;28;20188;-72
2023/09/21 16:32:56;;;;;;;7.93;2.70;;;;;;;;;;5056977;28;20201;-71
2023/09/21 16:35:26;;;;;;;6.27;2.20;;;;;;;;;;5074274;28;20237;-69
2023/09/21 16:41:47;;;;;;;7.00;2.80;;;;;;;;;;5074458;28;20236;-71
2023/09/21 16:44:19;;;;;;;7.10;2.40;;;;;;;;;;5057254;28;20207;-71
2023/09/21 16:46:47;;;;;;;7.43;2.90;;;;;;;;;;5056616;28;20200;-72
2023/09/21 16:49:20;;;;;;;7.83;2.70;;;;;;;;;;5052308;28;20278;-71
2023/09/21 16:51:47;;;;;;;6.20;2.60;;;;;;;;;;5036519;28;20195;-72
2023/09/21 16:54:14;;;;;;;5.40;2.30;;;;;;;;;;5063600;28;20232;-71
2023/09/21 17:00:35;;;;;;;6.10;2.60;;;;;;;;;;5073536;28;20545;-71
2023/09/21 17:03:03;;;;;;;8.30;2.60;;;;;;;;;;5074663;28;20190;-72
2023/09/21 17:05:33;;;;;;;7.83;2.97;;;;;;;;;;5056665;28;20564;-71
2023/09/21 17:08:01;;;;;;;7.30;2.67;;;;;;;;;;5056497;28;20179;-71
2023/09/21 17:10:29;;;;;;;8.20;2.50;;;;;;;;;;5073094;28;20179;-71
2023/09/21 17:12:57;;;;;;;7.57;2.90;;;;;;;;;;5073592;28;20187;-72
2023/09/21 17:15:24;;;;;;;8.20;2.73;;;;;;;;;;5055839;28;20186;-71
2023/09/21 17:17:53;;;;;;;6.40;2.93;;;;;;;;;;5073531;28;20194;-71
2023/09/21 17:20:20;;;;;;;7.00;2.53;;;;;;;;;;5073334;28;20233;-71
2023/09/21 17:22:49;;;;;;;7.67;3.10;;;;;;;;;;5073679;28;20530;-71
2023/09/21 17:25:18;;;;;;;7.50;2.80;;;;;;;;;;5072679;28;20250;-71
2023/09/21 17:27:46;;;;;;;8.87;3.00;;;;;;;;;;5073274;28;20182;-71
2023/09/21 17:30:14;;;;;;;5.60;3.10;;;;;;;;;;5073568;28;20261;-71
2023/09/21 17:32:41;;;;;;;6.53;2.60;;;;;;;;;;5056488;28;20182;-71
2023/09/21 17:35:26;;;;;;;9.03;3.00;;;;;;;;;;5073941;28;20178;-71
2023/09/21 17:37:53;;;;;;;5.17;2.90;;;;;;;;;;5073248;28;20663;-71
2023/09/21 17:40:20;;;;;;;6.93;2.80;;;;;;;;;;5054668;28;20186;-78
2023/09/21 17:42:47;;;;;;;6.43;2.80;;;;;;;;;;5073539;28;20178;-78
2023/09/21 17:45:15;;;;;;;7.97;2.97;;;;;;;;;;5062428;28;20230;-82
2023/09/21 17:47:43;;;;;;;7.57;2.50;;;;;;;;;;5056156;28;20564;-80
2023/09/21 17:50:15;;;;;;;4.47;2.70;;;;;;;;;;5074736;28;20167;-83
2023/09/21 17:56:42;;;;;;;6.70;3.20;;;;;;;;;;5073504;28;20229;-77
2023/09/21 18:03:09;;;;;;;4.43;2.60;;;;;;;;;;5072935;28;20168;-74
2023/09/21 18:09:36;;;;;;;7.73;3.20;;;;;;;;;;5073189;28;20177;-78
2023/09/21 18:12:03;;;;;;;5.53;2.90;;;;;;;;;;5055881;28;20190;-84
2023/09/21 18:14:47;;;;;;;10.13;3.20;;;;;;;;;;5075260;28;20193;-82
2023/09/21 18:17:14;;;;;;;8.50;3.50;;;;;;;;;;5073503;28;20536;-79
2023/09/21 18:19:41;;;;;;;8.37;3.60;;;;;;;;;;5056158;28;20374;-78
2023/09/21 18:22:08;;;;;;;6.13;2.90;;;;;;;;;;5072274;28;20630;-81
2023/09/21 18:28:37;;;;;;;7.40;3.37;;;;;;;;;;5076219;28;20153;-79
2023/09/21 18:31:04;;;;;;;7.33;3.30;;;;;;;;;;5076837;28;20197;-78
2023/09/21 18:37:26;;;;;;;5.60;3.50;;;;;;;;;;5076693;28;20161;-78
2023/09/21 18:39:53;;;;;;;5.93;3.23;;;;;;;;;;5077821;28;20197;-78
2023/09/21 18:42:21;;;;;;;7.33;3.30;;;;;;;;;;5060819;28;20197;-78
2023/09/21 18:47:59;;;;;;;4.50;3.40;;;;;;;;;;5076253;28;20217;-83
2023/09/21 18:54:28;;;;;;;6.53;3.67;;;;;;;;;;5072820;28;20303;-83
2023/09/21 18:56:56;;;;;;;6.80;3.67;;;;;;;;;;5079400;28;20224;-84
2023/09/21 18:59:28;;;;;;;8.27;3.57;;;;;;;;;;5075925;28;20182;-83
2023/09/21 19:05:55;;;;;;;11.37;3.20;;;;;;;;;;5075955;28;20702;-79
2023/09/21 19:08:25;;;;;;;6.77;3.37;;;;;;;;;;5042891;28;20197;-80
2023/09/21 19:10:55;;;;;;;6.90;3.43;;;;;;;;;;5059500;28;20197;-79
2023/09/21 19:13:31;;;;;;;8.50;3.20;;;;;;;;;;5060662;28;20186;-79
2023/09/21 19:19:52;;;;;;;7.70;3.23;;;;;;;;;;5076353;28;20264;-79
2023/09/21 19:22:37;;;;;;;4.80;3.30;;;;;;;;;;5058099;28;20257;-82
2023/09/21 19:29:03;;;;;;;4.83;3.23;;;;;;;;;;5075793;28;20225;-82
2023/09/21 19:31:32;;;;;;;5.87;3.40;;;;;;;;;;5041976;28;20182;-74
2023/09/21 19:33:59;;;;;;;8.30;3.50;;;;;;;;;;5075143;28;20285;-78
2023/09/21 19:36:27;;;;;;;7.20;3.67;;;;;;;;;;5056600;28;20193;-75
2023/09/21 19:38:54;;;;;;;5.90;3.20;;;;;;;;;;5057500;28;20288;-77
2023/09/21 19:41:22;;;;;;;8.57;3.10;;;;;;;;;;5041278;28;20514;-76
2023/09/21 19:43:50;;;;;;;6.83;3.20;;;;;;;;;;5075075;28;20190;-78
2023/09/21 19:46:17;;;;;;;8.10;3.10;;;;;;;;;;5074964;28;20200;-78
2023/09/21 19:48:47;;;;;;;6.20;3.27;;;;;;;;;;5056878;28;20185;-78
2023/09/21 19:51:14;;;;;;;6.30;3.43;;;;;;;;;;5062975;28;20238;-78
2023/09/21 19:57:40;;;;;;;7.07;3.33;;;;;;;;;;5075071;28;20196;-85
2023/09/21 20:04:10;;;;;;;6.80;3.00;;;;;;;;;;5074661;28;20200;-82
2023/09/21 20:06:37;;;;;;;5.50;3.00;;;;;;;;;;5053790;28;20549;-84
2023/09/21 20:12:58;;;;;;;6.07;3.10;;;;;;;;;;5054688;28;20150;-77
2023/09/21 20:15:25;;;;;;;6.97;3.20;;;;;;;;;;5053347;28;20665;-74
2023/09/21 20:17:52;;;;;;;6.27;2.97;;;;;;;;;;5046281;28;20209;-77
2023/09/21 20:20:33;;;;;;;5.27;3.13;;;;;;;;;;5085600;28;20709;-75
2023/09/21 20:23:02;;;;;;;6.13;3.37;;;;;;;;;;5074749;28;20183;-78
2023/09/21 20:29:31;;;;;;;5.57;3.43;;;;;;;;;;5054582;28;20165;-79
2023/09/21 20:32:03;;;;;;;7.70;3.40;;;;;;;;;;5037668;28;20187;-83
2023/09/21 20:34:29;;;;;;;7.20;3.97;;;;;;;;;;5021353;28;20325;-77
2023/09/21 20:40:58;;;;;;;7.23;3.50;;;;;;;;;;5055241;28;20209;-80
2023/09/21 20:43:31;;;;;;;6.60;4.07;;;;;;;;;;5055109;28;20254;-77
2023/09/21 20:45:58;;;;;;;6.33;3.67;;;;;;;;;;5069000;28;20194;-78
2023/09/21 20:48:25;;;;;;;5.77;3.40;;;;;;;;;;5073886;28;20277;-76
2023/09/21 21:06:28;;;;;;;6.67;3.20;;;;;;;;;;5053745;28;20221;-75
2023/09/21 21:08:56;;;;;;;4.93;3.03;;;;;;;;;;5054182;28;20181;-75
2023/09/21 21:11:23;;;;;;;6.53;3.50;;;;;;;;;;5054053;28;20625;-75
2023/09/21 21:13:50;;;;;;;5.80;3.10;;;;;;;;;;5053549;28;20206;-75
2023/09/21 21:20:10;;;;;;;8.13;3.37;;;;;;;;;;5053434;28;20300;-75
2023/09/21 21:22:37;;;;;;;6.37;3.27;;;;;;;;;;5035611;28;20248;-75
2023/09/21 21:25:04;;;;;;;4.90;3.20;;;;;;;;;;5054009;28;20186;-72
2023/09/21 21:27:31;;;;;;;4.80;3.43;;;;;;;;;;5035857;28;20202;-74
2023/09/21 21:29:59;;;;;;;6.40;3.30;;;;;;;;;;5053942;28;20254;-74
2023/09/21 21:32:26;;;;;;;3.57;2.93;;;;;;;;;;5035819;28;20584;-74
2023/09/21 21:34:53;;;;;;;7.60;3.37;;;;;;;;;;5035492;28;20211;-74
2023/09/21 21:37:19;;;;;;;5.10;3.30;;;;;;;;;;5053586;28;20178;-74
2023/09/21 21:39:49;;;;;;;5.33;3.20;;;;;;;;;;5036337;28;20194;-74
2023/09/21 21:42:16;;;;;;;4.50;3.07;;;;;;;;;;5053759;28;20518;-74
2023/09/21 21:44:43;;;;;;;4.60;3.30;;;;;;;;;;5053866;28;20186;-75
2023/09/21 21:51:08;;;;;;;5.70;3.27;;;;;;;;;;5073317;28;20154;-75
2023/09/21 21:53:35;;;;;;;7.03;3.10;;;;;;;;;;5055948;28;20243;-74
2023/09/21 21:56:02;;;;;;;4.93;3.07;;;;;;;;;;5022127;28;20206;-75
2023/09/21 22:02:30;;;;;;;4.00;3.20;;;;;;;;;;5073098;28;20148;-74
2023/09/21 22:04:57;;;;;;;5.40;3.27;;;;;;;;;;5073498;28;20225;-76
2023/09/21 22:07:41;;;;;;;5.63;3.33;;;;;;;;;;5073120;28;20155;-74
2023/09/21 22:14:08;;;;;;;4.53;3.03;;;;;;;;;;5076727;28;20608;-75
2023/09/21 22:16:34;;;;;;;4.57;3.27;;;;;;;;;;5077365;28;20190;-75
2023/09/21 22:19:01;;;;;;;5.00;3.13;;;;;;;;;;5076940;28;20260;-75